Weather at Granard Airfield

Public forecast

Using degrees Celsius for public forecast. Weather courtesy of forecast.io.

Closest aviation weather report (METAR) to Granard Airfield

Report is more than 6 hours old.

Closest report is Ireland West Knock Airport, 46.5 nm (86.2 km) WNW. Retrieved 2022/07/03 17:30 UTC (9 hours ago):

EIKN 031730Z 26013KT 8000 -RA BKN012 BKN024 11/10 Q1021 NOSIG

Closest aviation forecast (TAF) to Granard Airfield

Closest forecast is Ireland West Knock Airport, 46.5 nm (86.2 km) WNW. Retrieved 2022-07-04 00:09 UTC (2 hours ago):

TAF EIKN 032300Z 0400/0424 26010KT 9999 BKN010 PROB40 TEMPO 0400/0405 -RA BKN006 BECMG 0404/0406 30010KT FEW010 SCT016 PROB30 TEMPO 0405/0412 -SHRA BKN014 BECMG 0420/0422 27008KT BKN014 BECMG 0422/0424 -RADZ BKN005 PROB40 0423/0424 1500 BR BKN003 PROB30 0423/0424 0500 FG BKN001